Rotterdam Express — DMRX — position and weather

sailwx.info

Track history (hours):
 
Tides and Currents Weather Stations Pressure Air Temp Water Temp Dewpoint Dewpoint Depression Visibility Wind Speed Wind Dir Waves Ship Positions

Rotterdam Express

Last reported at 2014-Oct-30 15:25 UTC. Time now 2014-Oct-31 15:12 UTC.
Position N 29°20' W 094°41'.

Length 294 m; beam 32.2 m; draft 13.6 m.

Type: Ship. MMSI: 211335760.

Date/timePositionNaut miles runAvg speedWind from/ knotsBaromVisibWave heightAir tempDewpointWater temp
2014-Oct-30 15:25N 29°20' W 094°41'1010.8
2014-Oct-30 14:27N 29°27' W 094°51'1112.7
2014-Oct-30 13:33N 29°37' W 094°57'5 4.4
2014-Oct-30 12:28N 29°41' W 094°60'0 0.0
2014-Oct-30 11:28N 29°41' W 094°60'0 0.0
2014-Oct-30 10:33N 29°41' W 094°60'0 0.0
2014-Oct-30 09:32N 29°41' W 094°60'0 0.0
2014-Oct-30 08:32N 29°41' W 094°60'0 0.0
2014-Oct-30 07:31N 29°41' W 094°60'0 0.0
2014-Oct-30 06:28N 29°41' W 094°60'0 0.0
2014-Oct-30 05:31N 29°41' W 094°60'0 0.0
2014-Oct-30 04:28N 29°41' W 094°60'0 0.0
2014-Oct-30 03:22N 29°41' W 095°00'0 0.0
2014-Oct-30 02:28N 29°41' W 094°60'0 0.0
2014-Oct-30 01:28N 29°41' W 094°60'0 0.0
2014-Oct-30 00:16N 29°41' W 094°60'0 0.0
2014-Oct-29 23:28N 29°41' W 094°60'0 0.0
2014-Oct-29 22:28N 29°41' W 094°60'0 0.0
2014-Oct-29 21:22N 29°41' W 094°60'0 0.0
2014-Oct-29 20:25N 29°41' W 095°00'0 0.0
2014-Oct-29 19:10N 29°41' W 095°00'0 0.0
2014-Oct-29 18:28N 29°41' W 095°00'0 0.0
2014-Oct-29 17:16N 29°41' W 094°60'0 0.0
2014-Oct-29 16:28N 29°41' W 094°60'0 0.0
2014-Oct-29 15:28N 29°41' W 094°60'0 0.0
2014-Oct-29 14:33N 29°41' W 094°60'0 0.0
2014-Oct-29 13:32N 29°41' W 094°60'0 0.0
2014-Oct-29 12:33N 29°41' W 094°60'0 0.0
2014-Oct-29 11:28N 29°41' W 094°60'0 0.0
2014-Oct-29 10:31N 29°41' W 095°00'0 0.0
2014-Oct-29 09:19N 29°41' W 095°00'0 0.0
2014-Oct-29 08:30N 29°41' W 095°00'0 0.0
2014-Oct-29 07:10N 29°41' W 095°00'0 0.4
2014-Oct-29 06:33N 29°41' W 095°00'5 5.1
2014-Oct-29 05:33N 29°37' W 094°57'1111.1
2014-Oct-29 04:33N 29°27' W 094°51'1212.1
2014-Oct-29 03:33N 29°20' W 094°40'1111.1
2014-Oct-29 02:33N 29°13' W 094°29'10313.7
2014-Oct-28 19:00N 27°30' W 094°24'   180 / 81016.510.8 0.527.018.128.0
2014-Oct-26 03:29N 19°15' W 095°58'1010.5
2014-Oct-26 02:33N 19°12' W 096°07'1 0.7
2014-Oct-26 01:31N 19°13' W 096°08'0 0.0
2014-Oct-26 00:31N 19°13' W 096°08'0 0.0
2014-Oct-25 23:31N 19°13' W 096°08'0 0.0
2014-Oct-25 22:31N 19°13' W 096°08'0 0.0
2014-Oct-25 21:31N 19°13' W 096°08'0 0.0
2014-Oct-25 20:31N 19°13' W 096°08'0 0.0
2014-Oct-25 19:31N 19°13' W 096°08'0 0.0
2014-Oct-25 18:31N 19°13' W 096°08'0 0.0
2014-Oct-25 17:31N 19°13' W 096°08'0 0.0
2014-Oct-25 16:31N 19°13' W 096°08'0 0.0
2014-Oct-25 15:31N 19°13' W 096°08'0 0.0
2014-Oct-25 14:31N 19°13' W 096°08'1 0.9
2014-Oct-25 13:33N 19°12' W 096°07'8 8.4
2014-Oct-25 12:33N 19°13' W 095°58'397 9.6
2014-Oct-23 19:00N 22°06' W 089°36'5614.0 070 / 211010.510.8 0.528.023.929.0
2014-Oct-23 15:00N 22°12' W 088°36'30914.7 060 / 151010.510.8 29.024.928.0
2014-Oct-22 18:00N 23°06' W 083°06'27714.3 160 / 141012.5 5.4 0.527.021.330.0
2014-Oct-21 22:32N 26°10' W 079°18'7616.8
2014-Oct-21 18:00N 26°00' W 077°54'6616.5 200 / 41014.010.8 27.019.829.0
2014-Oct-21 14:00N 25°48' W 076°42'33616.8 180 / 151015.010.8 28.020.929.0
2014-Oct-20 18:00N 27°24' W 070°42'   050 / 51016.510.8 27.518.728.0
Track history (hours):
 
Tides and Currents Weather Stations Pressure Air Temp Water Temp Dewpoint Dewpoint Depression Visibility Wind Speed Wind Dir Waves Ship Positions

Rotterdam Express

Last reported at 2014-Oct-30 15:25 UTC. Time now 2014-Oct-31 15:12 UTC.
Position N 29°20' W 094°41'.

Length 294 m; beam 32.2 m; draft 13.6 m.

Type: Ship. MMSI: 211335760.

Date/timePositionNaut miles runAvg speedWind from/ knotsBaromVisibWave heightAir tempDewpointWater temp
2014-Oct-30 15:25N 29°20' W 094°41'1010.8
2014-Oct-30 14:27N 29°27' W 094°51'1112.7
2014-Oct-30 13:33N 29°37' W 094°57'5 4.4
2014-Oct-30 12:28N 29°41' W 094°60'0 0.0
2014-Oct-30 11:28N 29°41' W 094°60'0 0.0
2014-Oct-30 10:33N 29°41' W 094°60'0 0.0
2014-Oct-30 09:32N 29°41' W 094°60'0 0.0
2014-Oct-30 08:32N 29°41' W 094°60'0 0.0
2014-Oct-30 07:31N 29°41' W 094°60'0 0.0
2014-Oct-30 06:28N 29°41' W 094°60'0 0.0
2014-Oct-30 05:31N 29°41' W 094°60'0 0.0
2014-Oct-30 04:28N 29°41' W 094°60'0 0.0
2014-Oct-30 03:22N 29°41' W 095°00'0 0.0
2014-Oct-30 02:28N 29°41' W 094°60'0 0.0
2014-Oct-30 01:28N 29°41' W 094°60'0 0.0
2014-Oct-30 00:16N 29°41' W 094°60'0 0.0
2014-Oct-29 23:28N 29°41' W 094°60'0 0.0
2014-Oct-29 22:28N 29°41' W 094°60'0 0.0
2014-Oct-29 21:22N 29°41' W 094°60'0 0.0
2014-Oct-29 20:25N 29°41' W 095°00'0 0.0
2014-Oct-29 19:10N 29°41' W 095°00'0 0.0
2014-Oct-29 18:28N 29°41' W 095°00'0 0.0
2014-Oct-29 17:16N 29°41' W 094°60'0 0.0
2014-Oct-29 16:28N 29°41' W 094°60'0 0.0
2014-Oct-29 15:28N 29°41' W 094°60'0 0.0
2014-Oct-29 14:33N 29°41' W 094°60'0 0.0
2014-Oct-29 13:32N 29°41' W 094°60'0 0.0
2014-Oct-29 12:33N 29°41' W 094°60'0 0.0
2014-Oct-29 11:28N 29°41' W 094°60'0 0.0
2014-Oct-29 10:31N 29°41' W 095°00'0 0.0
2014-Oct-29 09:19N 29°41' W 095°00'0 0.0
2014-Oct-29 08:30N 29°41' W 095°00'0 0.0
2014-Oct-29 07:10N 29°41' W 095°00'0 0.4
2014-Oct-29 06:33N 29°41' W 095°00'5 5.1
2014-Oct-29 05:33N 29°37' W 094°57'1111.1
2014-Oct-29 04:33N 29°27' W 094°51'1212.1
2014-Oct-29 03:33N 29°20' W 094°40'1111.1
2014-Oct-29 02:33N 29°13' W 094°29'10313.7
2014-Oct-28 19:00N 27°30' W 094°24'   180 / 81016.510.8 0.527.018.128.0
2014-Oct-26 03:29N 19°15' W 095°58'1010.5
2014-Oct-26 02:33N 19°12' W 096°07'1 0.7
2014-Oct-26 01:31N 19°13' W 096°08'0 0.0
2014-Oct-26 00:31N 19°13' W 096°08'0 0.0
2014-Oct-25 23:31N 19°13' W 096°08'0 0.0
2014-Oct-25 22:31N 19°13' W 096°08'0 0.0
2014-Oct-25 21:31N 19°13' W 096°08'0 0.0
2014-Oct-25 20:31N 19°13' W 096°08'0 0.0
2014-Oct-25 19:31N 19°13' W 096°08'0 0.0
2014-Oct-25 18:31N 19°13' W 096°08'0 0.0
2014-Oct-25 17:31N 19°13' W 096°08'0 0.0
2014-Oct-25 16:31N 19°13' W 096°08'0 0.0
2014-Oct-25 15:31N 19°13' W 096°08'0 0.0
2014-Oct-25 14:31N 19°13' W 096°08'1 0.9
2014-Oct-25 13:33N 19°12' W 096°07'8 8.4
2014-Oct-25 12:33N 19°13' W 095°58'397 9.6
2014-Oct-23 19:00N 22°06' W 089°36'5614.0 070 / 211010.510.8 0.528.023.929.0
2014-Oct-23 15:00N 22°12' W 088°36'30914.7 060 / 151010.510.8 29.024.928.0
2014-Oct-22 18:00N 23°06' W 083°06'27714.3 160 / 141012.5 5.4 0.527.021.330.0
2014-Oct-21 22:32N 26°10' W 079°18'7616.8
2014-Oct-21 18:00N 26°00' W 077°54'6616.5 200 / 41014.010.8 27.019.829.0
2014-Oct-21 14:00N 25°48' W 076°42'33616.8 180 / 151015.010.8 28.020.929.0
2014-Oct-20 18:00N 27°24' W 070°42'   050 / 51016.510.8 27.518.728.0

Dump ship's entire track history